sensor_id;sensor_type;location;lat;lon;timestamp;P1;durP1;ratioP1;P2;durP2;ratioP2
1677;SDS011;6034;46.864;15.216;2023-09-12T05:01:20;14.27;;;12.83;;
1677;SDS011;6034;46.864;15.216;2023-09-12T05:03:47;14.40;;;12.97;;
1677;SDS011;6034;46.864;15.216;2023-09-12T05:06:14;13.70;;;12.43;;
1677;SDS011;6034;46.864;15.216;2023-09-12T05:08:42;14.63;;;12.40;;
1677;SDS011;6034;46.864;15.216;2023-09-12T05:11:09;14.10;;;12.90;;
1677;SDS011;6034;46.864;15.216;2023-09-12T05:13:36;14.40;;;13.00;;
1677;SDS011;6034;46.864;15.216;2023-09-12T05:16:03;13.63;;;12.23;;
1677;SDS011;6034;46.864;15.216;2023-09-12T05:18:32;13.93;;;12.63;;
1677;SDS011;6034;46.864;15.216;2023-09-12T05:20:59;15.83;;;13.23;;
1677;SDS011;6034;46.864;15.216;2023-09-12T05:23:27;15.07;;;13.70;;
1677;SDS011;6034;46.864;15.216;2023-09-12T05:25:54;16.10;;;14.17;;
1677;SDS011;6034;46.864;15.216;2023-09-12T05:28:21;14.60;;;13.13;;
1677;SDS011;6034;46.864;15.216;2023-09-12T05:30:50;12.90;;;11.80;;
1677;SDS011;6034;46.864;15.216;2023-09-12T05:33:18;13.53;;;12.43;;
1677;SDS011;6034;46.864;15.216;2023-09-12T05:35:47;14.33;;;13.03;;
1677;SDS011;6034;46.864;15.216;2023-09-12T05:38:14;13.70;;;11.73;;
1677;SDS011;6034;46.864;15.216;2023-09-12T05:40:41;13.77;;;12.47;;
1677;SDS011;6034;46.864;15.216;2023-09-12T05:43:09;13.17;;;12.00;;
1677;SDS011;6034;46.864;15.216;2023-09-12T05:45:36;14.57;;;13.17;;
1677;SDS011;6034;46.864;15.216;2023-09-12T05:48:03;17.07;;;12.30;;
1677;SDS011;6034;46.864;15.216;2023-09-12T05:50:31;13.43;;;11.80;;
1677;SDS011;6034;46.864;15.216;2023-09-12T05:52:59;12.20;;;11.20;;
1677;SDS011;6034;46.864;15.216;2023-09-12T05:55:27;12.37;;;11.17;;
1677;SDS011;6034;46.864;15.216;2023-09-12T05:57:54;11.47;;;10.57;;
1677;SDS011;6034;46.864;15.216;2023-09-12T06:00:22;11.30;;;10.30;;
1677;SDS011;6034;46.864;15.216;2023-09-12T06:02:49;12.63;;;11.40;;
1677;SDS011;6034;46.864;15.216;2023-09-12T06:05:16;10.57;;;9.57;;
1677;SDS011;6034;46.864;15.216;2023-09-12T06:07:44;11.77;;;10.77;;
1677;SDS011;6034;46.864;15.216;2023-09-12T06:10:13;13.83;;;12.63;;
1677;SDS011;6034;46.864;15.216;2023-09-12T06:12:40;12.63;;;11.53;;
1677;SDS011;6034;46.864;15.216;2023-09-12T06:15:08;14.37;;;12.97;;
1677;SDS011;6034;46.864;15.216;2023-09-12T06:17:36;13.27;;;12.23;;
1677;SDS011;6034;46.864;15.216;2023-09-12T06:20:03;13.30;;;12.17;;
1677;SDS011;6034;46.864;15.216;2023-09-12T06:22:32;13.37;;;12.03;;
1677;SDS011;6034;46.864;15.216;2023-09-12T06:24:59;13.70;;;12.50;;
1677;SDS011;6034;46.864;15.216;2023-09-12T06:27:28;12.93;;;11.67;;
1677;SDS011;6034;46.864;15.216;2023-09-12T06:29:56;13.60;;;12.40;;
1677;SDS011;6034;46.864;15.216;2023-09-12T06:32:23;12.17;;;11.17;;
1677;SDS011;6034;46.864;15.216;2023-09-12T06:34:51;12.97;;;11.70;;
1677;SDS011;6034;46.864;15.216;2023-09-12T06:37:18;13.70;;;12.60;;
1677;SDS011;6034;46.864;15.216;2023-09-12T06:39:48;12.53;;;11.43;;
1677;SDS011;6034;46.864;15.216;2023-09-12T06:42:16;12.20;;;11.20;;
1677;SDS011;6034;46.864;15.216;2023-09-12T06:44:45;12.50;;;11.30;;
1677;SDS011;6034;46.864;15.216;2023-09-12T06:47:12;13.20;;;12.00;;
1677;SDS011;6034;46.864;15.216;2023-09-12T06:49:39;12.80;;;11.47;;
1677;SDS011;6034;46.864;15.216;2023-09-12T06:52:07;12.03;;;11.03;;
1677;SDS011;6034;46.864;15.216;2023-09-12T06:54:35;11.47;;;10.47;;
1677;SDS011;6034;46.864;15.216;2023-09-12T06:57:02;12.03;;;10.90;;
1677;SDS011;6034;46.864;15.216;2023-09-12T06:59:30;12.10;;;11.00;;
1677;SDS011;6034;46.864;15.216;2023-09-12T07:01:58;11.73;;;10.53;;
1677;SDS011;6034;46.864;15.216;2023-09-12T07:04:26;11.67;;;10.67;;
1677;SDS011;6034;46.864;15.216;2023-09-12T07:06:53;12.10;;;10.97;;
1677;SDS011;6034;46.864;15.216;2023-09-12T07:09:20;11.60;;;10.60;;
1677;SDS011;6034;46.864;15.216;2023-09-12T07:11:47;12.30;;;11.20;;
1677;SDS011;6034;46.864;15.216;2023-09-12T07:14:14;15.40;;;12.23;;
1677;SDS011;6034;46.864;15.216;2023-09-12T07:16:42;12.10;;;11.10;;
1677;SDS011;6034;46.864;15.216;2023-09-12T07:19:10;12.03;;;10.83;;
1677;SDS011;6034;46.864;15.216;2023-09-12T07:21:37;12.30;;;11.30;;
1677;SDS011;6034;46.864;15.216;2023-09-12T07:24:05;12.40;;;11.40;;
1677;SDS011;6034;46.864;15.216;2023-09-12T07:26:32;11.60;;;10.70;;
1677;SDS011;6034;46.864;15.216;2023-09-12T07:29:00;12.17;;;10.97;;
1677;SDS011;6034;46.864;15.216;2023-09-12T07:31:29;13.30;;;12.10;;
1677;SDS011;6034;46.864;15.216;2023-09-12T07:33:56;12.83;;;11.40;;
1677;SDS011;6034;46.864;15.216;2023-09-12T07:36:25;11.97;;;10.97;;
1677;SDS011;6034;46.864;15.216;2023-09-12T07:38:52;12.03;;;10.93;;
1677;SDS011;6034;46.864;15.216;2023-09-12T07:41:19;12.30;;;11.10;;
1677;SDS011;6034;46.864;15.216;2023-09-12T07:43:46;12.77;;;11.57;;
1677;SDS011;6034;46.864;15.216;2023-09-12T07:46:13;12.77;;;11.67;;
1677;SDS011;6034;46.864;15.216;2023-09-12T07:48:40;12.07;;;10.97;;
1677;SDS011;6034;46.864;15.216;2023-09-12T07:51:11;12.17;;;11.00;;
1677;SDS011;6034;46.864;15.216;2023-09-12T07:53:42;13.00;;;11.67;;
1677;SDS011;6034;46.864;15.216;2023-09-12T07:56:09;11.13;;;10.23;;
1677;SDS011;6034;46.864;15.216;2023-09-12T07:58:38;12.90;;;11.63;;
1677;SDS011;6034;46.864;15.216;2023-09-12T08:01:09;13.23;;;11.90;;
1677;SDS011;6034;46.864;15.216;2023-09-12T08:03:37;12.40;;;11.27;;
1677;SDS011;6034;46.864;15.216;2023-09-12T08:06:05;12.10;;;11.00;;
1677;SDS011;6034;46.864;15.216;2023-09-12T08:08:32;11.93;;;10.90;;
1677;SDS011;6034;46.864;15.216;2023-09-12T08:11:01;13.63;;;12.33;;
1677;SDS011;6034;46.864;15.216;2023-09-12T08:13:29;15.57;;;12.70;;
1677;SDS011;6034;46.864;15.216;2023-09-12T08:15:56;12.70;;;11.50;;
1677;SDS011;6034;46.864;15.216;2023-09-12T08:18:25;14.53;;;13.13;;
1677;SDS011;6034;46.864;15.216;2023-09-12T08:20:55;13.47;;;12.30;;
1677;SDS011;6034;46.864;15.216;2023-09-12T08:23:22;14.80;;;13.20;;
1677;SDS011;6034;46.864;15.216;2023-09-12T08:25:49;12.63;;;11.37;;
1677;SDS011;6034;46.864;15.216;2023-09-12T08:28:18;12.50;;;11.20;;
1677;SDS011;6034;46.864;15.216;2023-09-12T08:30:45;12.97;;;11.77;;
1677;SDS011;6034;46.864;15.216;2023-09-12T08:33:12;13.80;;;12.40;;
1677;SDS011;6034;46.864;15.216;2023-09-12T08:35:39;14.60;;;13.10;;
1677;SDS011;6034;46.864;15.216;2023-09-12T08:38:06;15.17;;;13.77;;
1677;SDS011;6034;46.864;15.216;2023-09-12T08:40:34;12.40;;;11.17;;
1677;SDS011;6034;46.864;15.216;2023-09-12T08:43:02;14.60;;;13.20;;
1677;SDS011;6034;46.864;15.216;2023-09-12T08:45:31;13.27;;;12.10;;
1677;SDS011;6034;46.864;15.216;2023-09-12T08:47:59;15.40;;;12.90;;
1677;SDS011;6034;46.864;15.216;2023-09-12T08:50:27;14.37;;;12.97;;
1677;SDS011;6034;46.864;15.216;2023-09-12T08:52:58;14.03;;;12.83;;
1677;SDS011;6034;46.864;15.216;2023-09-12T08:55:25;14.27;;;12.97;;
1677;SDS011;6034;46.864;15.216;2023-09-12T08:57:52;13.37;;;12.27;;
1677;SDS011;6034;46.864;15.216;2023-09-12T09:00:21;12.97;;;11.80;;
1677;SDS011;6034;46.864;15.216;2023-09-12T09:02:51;14.17;;;12.67;;
1677;SDS011;6034;46.864;15.216;2023-09-12T09:05:19;15.53;;;14.13;;
1677;SDS011;6034;46.864;15.216;2023-09-12T09:07:48;14.30;;;12.93;;
1677;SDS011;6034;46.864;15.216;2023-09-12T09:10:17;13.63;;;12.33;;
1677;SDS011;6034;46.864;15.216;2023-09-12T09:12:46;16.70;;;13.00;;
1677;SDS011;6034;46.864;15.216;2023-09-12T09:15:20;14.10;;;12.90;;
1677;SDS011;6034;46.864;15.216;2023-09-12T09:17:48;14.30;;;13.13;;
1677;SDS011;6034;46.864;15.216;2023-09-12T09:20:27;15.53;;;14.00;;
1677;SDS011;6034;46.864;15.216;2023-09-12T09:22:59;14.30;;;13.00;;
1677;SDS011;6034;46.864;15.216;2023-09-12T09:25:30;14.27;;;13.03;;
1677;SDS011;6034;46.864;15.216;2023-09-12T09:27:57;13.67;;;12.33;;
1677;SDS011;6034;46.864;15.216;2023-09-12T09:30:41;13.90;;;12.50;;
1677;SDS011;6034;46.864;15.216;2023-09-12T09:33:09;13.03;;;11.87;;
1677;SDS011;6034;46.864;15.216;2023-09-12T09:35:38;13.47;;;12.33;;
1677;SDS011;6034;46.864;15.216;2023-09-12T09:38:08;15.13;;;13.50;;
1677;SDS011;6034;46.864;15.216;2023-09-12T09:40:38;15.87;;;12.17;;
1677;SDS011;6034;46.864;15.216;2023-09-12T09:43:05;13.43;;;12.23;;
1677;SDS011;6034;46.864;15.216;2023-09-12T09:45:32;12.27;;;11.10;;
1677;SDS011;6034;46.864;15.216;2023-09-12T09:48:08;13.70;;;12.50;;
1677;SDS011;6034;46.864;15.216;2023-09-12T09:50:36;13.37;;;12.27;;
1677;SDS011;6034;46.864;15.216;2023-09-12T09:53:05;14.90;;;13.20;;
1677;SDS011;6034;46.864;15.216;2023-09-12T09:55:34;12.80;;;11.60;;
1677;SDS011;6034;46.864;15.216;2023-09-12T09:58:02;13.60;;;12.47;;
1677;SDS011;6034;46.864;15.216;2023-09-12T10:00:32;13.43;;;12.23;;
1677;SDS011;6034;46.864;15.216;2023-09-12T10:03:00;13.60;;;12.27;;
1677;SDS011;6034;46.864;15.216;2023-09-12T10:05:31;13.40;;;12.17;;
1677;SDS011;6034;46.864;15.216;2023-09-12T10:07:59;13.33;;;12.23;;
1677;SDS011;6034;46.864;15.216;2023-09-12T10:10:32;12.97;;;11.87;;
1677;SDS011;6034;46.864;15.216;2023-09-12T10:13:00;12.73;;;11.63;;
1677;SDS011;6034;46.864;15.216;2023-09-12T10:15:30;12.67;;;11.67;;
1677;SDS011;6034;46.864;15.216;2023-09-12T10:18:01;12.57;;;11.47;;
1677;SDS011;6034;46.864;15.216;2023-09-12T10:20:35;12.30;;;11.30;;
1677;SDS011;6034;46.864;15.216;2023-09-12T10:23:11;13.60;;;12.30;;
1677;SDS011;6034;46.864;15.216;2023-09-12T10:25:47;11.90;;;10.83;;
1677;SDS011;6034;46.864;15.216;2023-09-12T10:28:15;12.73;;;11.40;;
1677;SDS011;6034;46.864;15.216;2023-09-12T10:30:44;13.67;;;12.47;;
1677;SDS011;6034;46.864;15.216;2023-09-12T10:33:12;12.57;;;11.50;;
1677;SDS011;6034;46.864;15.216;2023-09-12T10:35:42;13.07;;;11.60;;
1677;SDS011;6034;46.864;15.216;2023-09-12T10:38:11;11.50;;;10.53;;
1677;SDS011;6034;46.864;15.216;2023-09-12T10:40:43;12.20;;;11.20;;
1677;SDS011;6034;46.864;15.216;2023-09-12T10:43:15;12.17;;;11.17;;
1677;SDS011;6034;46.864;15.216;2023-09-12T10:45:42;12.13;;;10.70;;
1677;SDS011;6034;46.864;15.216;2023-09-12T10:48:11;12.47;;;11.37;;
1677;SDS011;6034;46.864;15.216;2023-09-12T10:50:38;12.10;;;11.07;;
1677;SDS011;6034;46.864;15.216;2023-09-12T10:53:10;12.30;;;11.10;;
1677;SDS011;6034;46.864;15.216;2023-09-12T10:55:39;11.70;;;10.67;;
1677;SDS011;6034;46.864;15.216;2023-09-12T10:58:07;12.87;;;11.70;;
1677;SDS011;6034;46.864;15.216;2023-09-12T11:00:38;11.83;;;10.73;;
1677;SDS011;6034;46.864;15.216;2023-09-12T11:06:05;13.17;;;12.07;;
1677;SDS011;6034;46.864;15.216;2023-09-12T11:11:43;13.00;;;11.80;;
1677;SDS011;6034;46.864;15.216;2023-09-12T11:14:13;12.87;;;11.87;;
1677;SDS011;6034;46.864;15.216;2023-09-12T11:16:43;13.17;;;11.83;;
1677;SDS011;6034;46.864;15.216;2023-09-12T11:19:31;13.13;;;11.83;;
1677;SDS011;6034;46.864;15.216;2023-09-12T11:22:20;12.17;;;11.07;;
1677;SDS011;6034;46.864;15.216;2023-09-12T11:24:51;11.60;;;10.57;;
1677;SDS011;6034;46.864;15.216;2023-09-12T11:27:20;11.80;;;10.80;;
1677;SDS011;6034;46.864;15.216;2023-09-12T11:29:49;13.07;;;11.80;;
1677;SDS011;6034;46.864;15.216;2023-09-12T11:32:30;12.40;;;11.20;;
1677;SDS011;6034;46.864;15.216;2023-09-12T11:34:59;12.13;;;11.03;;
1677;SDS011;6034;46.864;15.216;2023-09-12T11:37:31;11.93;;;10.10;;
1677;SDS011;6034;46.864;15.216;2023-09-12T11:40:02;11.50;;;10.47;;
1677;SDS011;6034;46.864;15.216;2023-09-12T11:42:43;12.27;;;11.13;;
1677;SDS011;6034;46.864;15.216;2023-09-12T11:45:11;12.10;;;10.67;;
1677;SDS011;6034;46.864;15.216;2023-09-12T11:47:41;12.37;;;11.30;;
1677;SDS011;6034;46.864;15.216;2023-09-12T11:50:19;11.60;;;10.70;;
1677;SDS011;6034;46.864;15.216;2023-09-12T11:52:58;13.10;;;12.00;;
1677;SDS011;6034;46.864;15.216;2023-09-12T11:55:26;18.13;;;10.97;;
1677;SDS011;6034;46.864;15.216;2023-09-12T11:57:55;11.53;;;10.43;;
1677;SDS011;6034;46.864;15.216;2023-09-12T12:00:23;11.63;;;10.63;;
1677;SDS011;6034;46.864;15.216;2023-09-12T12:02:53;11.83;;;10.73;;
1677;SDS011;6034;46.864;15.216;2023-09-12T12:05:21;12.20;;;10.73;;
1677;SDS011;6034;46.864;15.216;2023-09-12T12:07:49;11.67;;;10.47;;
1677;SDS011;6034;46.864;15.216;2023-09-12T12:10:17;13.33;;;11.93;;
1677;SDS011;6034;46.864;15.216;2023-09-12T12:12:45;12.53;;;11.43;;
1677;SDS011;6034;46.864;15.216;2023-09-12T12:15:13;12.03;;;10.93;;
1677;SDS011;6034;46.864;15.216;2023-09-12T12:17:40;12.27;;;10.77;;
1677;SDS011;6034;46.864;15.216;2023-09-12T12:20:10;12.50;;;11.40;;
1677;SDS011;6034;46.864;15.216;2023-09-12T12:22:38;12.40;;;11.40;;
1677;SDS011;6034;46.864;15.216;2023-09-12T12:25:06;11.60;;;10.60;;
1677;SDS011;6034;46.864;15.216;2023-09-12T12:27:37;10.97;;;9.97;;
1677;SDS011;6034;46.864;15.216;2023-09-12T12:30:06;11.13;;;10.33;;
1677;SDS011;6034;46.864;15.216;2023-09-12T12:32:35;11.10;;;10.20;;
1677;SDS011;6034;46.864;15.216;2023-09-12T12:35:06;11.80;;;10.73;;
1677;SDS011;6034;46.864;15.216;2023-09-12T12:37:35;12.00;;;11.00;;
1677;SDS011;6034;46.864;15.216;2023-09-12T12:40:03;12.00;;;10.90;;
1677;SDS011;6034;46.864;15.216;2023-09-12T12:42:35;12.10;;;11.10;;
1677;SDS011;6034;46.864;15.216;2023-09-12T12:45:10;11.53;;;10.63;;
1677;SDS011;6034;46.864;15.216;2023-09-12T12:47:39;12.13;;;10.97;;
1677;SDS011;6034;46.864;15.216;2023-09-12T12:50:10;11.63;;;10.53;;
1677;SDS011;6034;46.864;15.216;2023-09-12T12:52:39;11.07;;;10.07;;
1677;SDS011;6034;46.864;15.216;2023-09-12T12:55:09;12.07;;;10.97;;
1677;SDS011;6034;46.864;15.216;2023-09-12T12:57:37;11.80;;;10.93;;
1677;SDS011;6034;46.864;15.216;2023-09-12T13:00:06;12.90;;;11.60;;
1677;SDS011;6034;46.864;15.216;2023-09-12T13:02:36;13.47;;;12.30;;
1677;SDS011;6034;46.864;15.216;2023-09-12T13:05:03;13.30;;;12.10;;
1677;SDS011;6034;46.864;15.216;2023-09-12T13:07:33;13.40;;;12.10;;
1677;SDS011;6034;46.864;15.216;2023-09-12T13:10:02;13.17;;;11.83;;
1677;SDS011;6034;46.864;15.216;2023-09-12T13:12:30;12.73;;;11.57;;
1677;SDS011;6034;46.864;15.216;2023-09-12T13:14:57;12.30;;;11.30;;
1677;SDS011;6034;46.864;15.216;2023-09-12T13:17:25;13.07;;;11.97;;
1677;SDS011;6034;46.864;15.216;2023-09-12T13:19:52;12.50;;;11.40;;
1677;SDS011;6034;46.864;15.216;2023-09-12T13:22:19;13.43;;;12.23;;
1677;SDS011;6034;46.864;15.216;2023-09-12T13:24:47;14.00;;;12.80;;
1677;SDS011;6034;46.864;15.216;2023-09-12T13:27:15;13.07;;;11.83;;
1677;SDS011;6034;46.864;15.216;2023-09-12T13:29:43;12.93;;;11.63;;
1677;SDS011;6034;46.864;15.216;2023-09-12T13:32:10;14.00;;;12.77;;
1677;SDS011;6034;46.864;15.216;2023-09-12T13:34:40;13.23;;;12.23;;
1677;SDS011;6034;46.864;15.216;2023-09-12T13:37:08;13.80;;;12.60;;
1677;SDS011;6034;46.864;15.216;2023-09-12T13:39:35;13.33;;;12.07;;
1677;SDS011;6034;46.864;15.216;2023-09-12T13:42:02;14.37;;;13.10;;
1677;SDS011;6034;46.864;15.216;2023-09-12T13:44:35;11.73;;;10.83;;
1677;SDS011;6034;46.864;15.216;2023-09-12T13:47:02;12.30;;;11.30;;
1677;SDS011;6034;46.864;15.216;2023-09-12T13:49:30;11.37;;;10.37;;
1677;SDS011;6034;46.864;15.216;2023-09-12T13:51:57;13.80;;;12.03;;
1677;SDS011;6034;46.864;15.216;2023-09-12T13:54:24;12.00;;;11.00;;
1677;SDS011;6034;46.864;15.216;2023-09-12T13:56:51;13.57;;;12.43;;
1677;SDS011;6034;46.864;15.216;2023-09-12T13:59:19;13.07;;;11.63;;
1677;SDS011;6034;46.864;15.216;2023-09-12T14:01:49;12.50;;;11.03;;
1677;SDS011;6034;46.864;15.216;2023-09-12T14:04:17;12.77;;;11.57;;
1677;SDS011;6034;46.864;15.216;2023-09-12T14:06:45;11.93;;;10.83;;
1677;SDS011;6034;46.864;15.216;2023-09-12T14:09:13;11.53;;;10.53;;
1677;SDS011;6034;46.864;15.216;2023-09-12T14:11:41;11.83;;;10.50;;
1677;SDS011;6034;46.864;15.216;2023-09-12T14:14:08;11.23;;;10.33;;
1677;SDS011;6034;46.864;15.216;2023-09-12T14:16:36;12.03;;;9.63;;
1677;SDS011;6034;46.864;15.216;2023-09-12T14:19:06;11.37;;;10.33;;
1677;SDS011;6034;46.864;15.216;2023-09-12T14:21:37;12.53;;;11.43;;
1677;SDS011;6034;46.864;15.216;2023-09-12T14:24:05;11.60;;;10.60;;
1677;SDS011;6034;46.864;15.216;2023-09-12T14:26:34;12.47;;;11.37;;
1677;SDS011;6034;46.864;15.216;2023-09-12T14:29:01;11.43;;;10.43;;
1677;SDS011;6034;46.864;15.216;2023-09-12T14:31:31;11.77;;;10.77;;
1677;SDS011;6034;46.864;15.216;2023-09-12T14:33:59;11.37;;;10.27;;
1677;SDS011;6034;46.864;15.216;2023-09-12T14:36:29;13.40;;;11.93;;
1677;SDS011;6034;46.864;15.216;2023-09-12T14:38:58;11.80;;;10.80;;
1677;SDS011;6034;46.864;15.216;2023-09-12T14:41:25;12.67;;;11.37;;
1677;SDS011;6034;46.864;15.216;2023-09-12T14:43:53;12.33;;;10.87;;
1677;SDS011;6034;46.864;15.216;2023-09-12T14:46:21;11.77;;;10.57;;
1677;SDS011;6034;46.864;15.216;2023-09-12T14:48:49;11.47;;;10.37;;
1677;SDS011;6034;46.864;15.216;2023-09-12T14:51:17;11.67;;;10.60;;
1677;SDS011;6034;46.864;15.216;2023-09-12T14:53:46;11.70;;;10.63;;
1677;SDS011;6034;46.864;15.216;2023-09-12T14:56:15;12.50;;;10.73;;
1677;SDS011;6034;46.864;15.216;2023-09-12T14:58:43;10.60;;;9.50;;
1677;SDS011;6034;46.864;15.216;2023-09-12T15:01:11;11.23;;;10.10;;
1677;SDS011;6034;46.864;15.216;2023-09-12T15:03:39;12.70;;;9.97;;
1677;SDS011;6034;46.864;15.216;2023-09-12T15:06:08;11.27;;;10.27;;
1677;SDS011;6034;46.864;15.216;2023-09-12T15:08:37;12.33;;;11.00;;
1677;SDS011;6034;46.864;15.216;2023-09-12T15:11:06;10.77;;;9.83;;
1677;SDS011;6034;46.864;15.216;2023-09-12T15:13:33;10.40;;;9.40;;
1677;SDS011;6034;46.864;15.216;2023-09-12T15:16:02;12.23;;;11.10;;
1677;SDS011;6034;46.864;15.216;2023-09-12T15:18:30;13.37;;;12.03;;
1677;SDS011;6034;46.864;15.216;2023-09-12T15:20:58;15.83;;;11.97;;
1677;SDS011;6034;46.864;15.216;2023-09-12T15:23:26;12.20;;;11.00;;
1677;SDS011;6034;46.864;15.216;2023-09-12T15:25:54;11.20;;;10.20;;
1677;SDS011;6034;46.864;15.216;2023-09-12T15:28:22;10.67;;;9.67;;
1677;SDS011;6034;46.864;15.216;2023-09-12T15:30:50;11.67;;;10.77;;
1677;SDS011;6034;46.864;15.216;2023-09-12T15:33:19;11.13;;;9.80;;
1677;SDS011;6034;46.864;15.216;2023-09-12T15:35:48;10.40;;;9.47;;
1677;SDS011;6034;46.864;15.216;2023-09-12T15:38:15;12.70;;;11.17;;
1677;SDS011;6034;46.864;15.216;2023-09-12T15:40:43;11.17;;;10.07;;
1677;SDS011;6034;46.864;15.216;2023-09-12T15:43:11;10.87;;;9.77;;
1677;SDS011;6034;46.864;15.216;2023-09-12T15:45:40;10.77;;;9.90;;
1677;SDS011;6034;46.864;15.216;2023-09-12T15:48:08;11.10;;;10.13;;
1677;SDS011;6034;46.864;15.216;2023-09-12T15:50:37;11.80;;;10.60;;
1677;SDS011;6034;46.864;15.216;2023-09-12T15:53:05;11.13;;;10.13;;
1677;SDS011;6034;46.864;15.216;2023-09-12T15:55:33;10.70;;;9.77;;
1677;SDS011;6034;46.864;15.216;2023-09-12T15:58:01;10.77;;;9.77;;
1677;SDS011;6034;46.864;15.216;2023-09-12T16:00:29;12.07;;;10.87;;
1677;SDS011;6034;46.864;15.216;2023-09-12T16:02:59;12.10;;;11.00;;
1677;SDS011;6034;46.864;15.216;2023-09-12T16:05:27;11.03;;;10.10;;
1677;SDS011;6034;46.864;15.216;2023-09-12T16:07:55;11.30;;;10.30;;
1677;SDS011;6034;46.864;15.216;2023-09-12T16:10:24;11.70;;;10.70;;
1677;SDS011;6034;46.864;15.216;2023-09-12T16:12:52;13.40;;;10.70;;
1677;SDS011;6034;46.864;15.216;2023-09-12T16:15:20;11.70;;;10.53;;
1677;SDS011;6034;46.864;15.216;2023-09-12T16:17:48;13.07;;;11.07;;
1677;SDS011;6034;46.864;15.216;2023-09-12T16:20:18;11.70;;;10.80;;
1677;SDS011;6034;46.864;15.216;2023-09-12T16:22:47;11.83;;;10.77;;
1677;SDS011;6034;46.864;15.216;2023-09-12T16:25:15;11.83;;;10.63;;
1677;SDS011;6034;46.864;15.216;2023-09-12T16:27:42;10.67;;;9.77;;
1677;SDS011;6034;46.864;15.216;2023-09-12T16:30:11;10.80;;;9.87;;
1677;SDS011;6034;46.864;15.216;2023-09-12T16:32:41;12.30;;;9.57;;
1677;SDS011;6034;46.864;15.216;2023-09-12T16:35:09;11.97;;;10.60;;
1677;SDS011;6034;46.864;15.216;2023-09-12T16:37:40;11.53;;;10.53;;
1677;SDS011;6034;46.864;15.216;2023-09-12T16:40:08;12.10;;;11.00;;
1677;SDS011;6034;46.864;15.216;2023-09-12T16:42:38;10.47;;;9.57;;
1677;SDS011;6034;46.864;15.216;2023-09-12T16:45:11;11.87;;;10.80;;
1677;SDS011;6034;46.864;15.216;2023-09-12T16:47:38;12.80;;;11.70;;
1677;SDS011;6034;46.864;15.216;2023-09-12T16:50:06;11.70;;;10.70;;
1677;SDS011;6034;46.864;15.216;2023-09-12T16:52:36;11.60;;;10.50;;
1677;SDS011;6034;46.864;15.216;2023-09-12T16:55:05;11.73;;;10.73;;
1677;SDS011;6034;46.864;15.216;2023-09-12T16:57:36;12.63;;;11.53;;
1677;SDS011;6034;46.864;15.216;2023-09-12T17:00:04;12.67;;;11.57;;
1677;SDS011;6034;46.864;15.216;2023-09-12T17:02:33;11.63;;;10.53;;
1677;SDS011;6034;46.864;15.216;2023-09-12T17:05:01;11.43;;;10.43;;
1677;SDS011;6034;46.864;15.216;2023-09-12T17:07:30;12.13;;;11.10;;
1677;SDS011;6034;46.864;15.216;2023-09-12T17:09:59;11.70;;;10.50;;
1677;SDS011;6034;46.864;15.216;2023-09-12T17:12:28;11.63;;;10.63;;
1677;SDS011;6034;46.864;15.216;2023-09-12T17:14:58;12.43;;;11.33;;
1677;SDS011;6034;46.864;15.216;2023-09-12T17:17:28;13.67;;;11.87;;
1677;SDS011;6034;46.864;15.216;2023-09-12T17:19:57;12.93;;;11.70;;
1677;SDS011;6034;46.864;15.216;2023-09-12T17:22:26;11.60;;;10.50;;
1677;SDS011;6034;46.864;15.216;2023-09-12T17:24:55;15.07;;;12.20;;
1677;SDS011;6034;46.864;15.216;2023-09-12T17:27:23;12.10;;;10.90;;
1677;SDS011;6034;46.864;15.216;2023-09-12T17:29:55;12.23;;;11.17;;
1677;SDS011;6034;46.864;15.216;2023-09-12T17:32:24;12.27;;;11.10;;
1677;SDS011;6034;46.864;15.216;2023-09-12T17:34:53;12.17;;;11.17;;
1677;SDS011;6034;46.864;15.216;2023-09-12T17:37:24;11.97;;;10.87;;
1677;SDS011;6034;46.864;15.216;2023-09-12T17:39:56;11.47;;;10.47;;
1677;SDS011;6034;46.864;15.216;2023-09-12T17:42:25;12.70;;;11.70;;
1677;SDS011;6034;46.864;15.216;2023-09-12T17:44:57;12.83;;;11.60;;
1677;SDS011;6034;46.864;15.216;2023-09-12T17:47:24;14.30;;;12.90;;
1677;SDS011;6034;46.864;15.216;2023-09-12T17:49:55;13.43;;;12.20;;
1677;SDS011;6034;46.864;15.216;2023-09-12T17:52:23;17.20;;;15.40;;
1677;SDS011;6034;46.864;15.216;2023-09-12T17:54:52;21.33;;;19.27;;
1677;SDS011;6034;46.864;15.216;2023-09-12T17:57:23;15.47;;;14.10;;
1677;SDS011;6034;46.864;15.216;2023-09-12T17:59:53;14.20;;;12.90;;
1677;SDS011;6034;46.864;15.216;2023-09-12T18:02:26;14.07;;;12.30;;
1677;SDS011;6034;46.864;15.216;2023-09-12T18:04:56;16.97;;;15.23;;
1677;SDS011;6034;46.864;15.216;2023-09-12T18:07:25;17.70;;;16.07;;
1677;SDS011;6034;46.864;15.216;2023-09-12T18:09:54;15.97;;;14.77;;
1677;SDS011;6034;46.864;15.216;2023-09-12T18:12:25;17.93;;;16.23;;
1677;SDS011;6034;46.864;15.216;2023-09-12T18:14:55;18.93;;;17.33;;
1677;SDS011;6034;46.864;15.216;2023-09-12T18:17:25;17.47;;;15.97;;
1677;SDS011;6034;46.864;15.216;2023-09-12T18:19:58;16.40;;;15.00;;
1677;SDS011;6034;46.864;15.216;2023-09-12T18:22:29;15.33;;;13.87;;
1677;SDS011;6034;46.864;15.216;2023-09-12T18:24:58;15.83;;;14.43;;
1677;SDS011;6034;46.864;15.216;2023-09-12T18:27:27;17.50;;;16.00;;
1677;SDS011;6034;46.864;15.216;2023-09-12T18:30:21;15.20;;;14.00;;
1677;SDS011;6034;46.864;15.216;2023-09-12T18:32:53;22.10;;;20.23;;
1677;SDS011;6034;46.864;15.216;2023-09-12T18:35:22;18.60;;;17.07;;
1677;SDS011;6034;46.864;15.216;2023-09-12T18:37:57;19.17;;;17.67;;
1677;SDS011;6034;46.864;15.216;2023-09-12T18:40:29;16.33;;;14.60;;
1677;SDS011;6034;46.864;15.216;2023-09-12T18:42:58;15.77;;;14.47;;
1677;SDS011;6034;46.864;15.216;2023-09-12T18:45:28;18.30;;;16.60;;
1677;SDS011;6034;46.864;15.216;2023-09-12T18:47:58;19.70;;;17.60;;
1677;SDS011;6034;46.864;15.216;2023-09-12T18:50:25;17.33;;;15.83;;
1677;SDS011;6034;46.864;15.216;2023-09-12T18:52:55;16.63;;;15.33;;
1677;SDS011;6034;46.864;15.216;2023-09-12T18:55:27;17.90;;;16.07;;
1677;SDS011;6034;46.864;15.216;2023-09-12T18:57:57;16.23;;;14.77;;
1677;SDS011;6034;46.864;15.216;2023-09-12T19:00:28;24.03;;;22.10;;
1677;SDS011;6034;46.864;15.216;2023-09-12T19:02:56;40.50;;;36.83;;
1677;SDS011;6034;46.864;15.216;2023-09-12T19:05:25;20.03;;;18.20;;
1677;SDS011;6034;46.864;15.216;2023-09-12T19:07:54;17.30;;;15.80;;
1677;SDS011;6034;46.864;15.216;2023-09-12T19:10:23;15.43;;;14.20;;
1677;SDS011;6034;46.864;15.216;2023-09-12T19:12:53;16.27;;;15.03;;
1677;SDS011;6034;46.864;15.216;2023-09-12T19:15:25;18.10;;;16.60;;
1677;SDS011;6034;46.864;15.216;2023-09-12T19:17:57;19.70;;;17.83;;
1677;SDS011;6034;46.864;15.216;2023-09-12T19:20:25;21.03;;;18.90;;
1677;SDS011;6034;46.864;15.216;2023-09-12T19:22:53;20.50;;;18.77;;
1677;SDS011;6034;46.864;15.216;2023-09-12T19:25:21;18.80;;;17.20;;
1677;SDS011;6034;46.864;15.216;2023-09-12T19:27:51;18.13;;;16.53;;
1677;SDS011;6034;46.864;15.216;2023-09-12T19:30:20;17.27;;;15.60;;
1677;SDS011;6034;46.864;15.216;2023-09-12T19:32:51;19.50;;;17.80;;
1677;SDS011;6034;46.864;15.216;2023-09-12T19:35:23;23.50;;;16.23;;
1677;SDS011;6034;46.864;15.216;2023-09-12T19:37:53;19.20;;;17.60;;
1677;SDS011;6034;46.864;15.216;2023-09-12T19:40:27;19.70;;;18.00;;
1677;SDS011;6034;46.864;15.216;2023-09-12T19:42:56;24.83;;;22.20;;
1677;SDS011;6034;46.864;15.216;2023-09-12T19:45:26;17.40;;;15.83;;
1677;SDS011;6034;46.864;15.216;2023-09-12T19:47:54;16.43;;;14.00;;
1677;SDS011;6034;46.864;15.216;2023-09-12T19:50:26;31.63;;;28.90;;
1677;SDS011;6034;46.864;15.216;2023-09-12T19:52:56;17.17;;;15.40;;